sensor_id;sensor_type;location;lat;lon;timestamp;P1;durP1;ratioP1;P2;durP2;ratioP2
2756;SDS011;1386;50.862;6.494;2023-07-29T00:00:19;1.50;;;1.40;;
2756;SDS011;1386;50.862;6.494;2023-07-29T00:02:46;3.23;;;1.77;;
2756;SDS011;1386;50.862;6.494;2023-07-29T00:05:13;2.13;;;1.37;;
2756;SDS011;1386;50.862;6.494;2023-07-29T00:07:40;1.43;;;1.33;;
2756;SDS011;1386;50.862;6.494;2023-07-29T00:10:07;1.70;;;1.60;;
2756;SDS011;1386;50.862;6.494;2023-07-29T00:12:38;1.90;;;1.60;;
2756;SDS011;1386;50.862;6.494;2023-07-29T00:15:06;3.03;;;1.60;;
2756;SDS011;1386;50.862;6.494;2023-07-29T00:17:33;2.20;;;1.50;;
2756;SDS011;1386;50.862;6.494;2023-07-29T00:20:01;2.07;;;1.60;;
2756;SDS011;1386;50.862;6.494;2023-07-29T00:22:28;3.80;;;1.50;;
2756;SDS011;1386;50.862;6.494;2023-07-29T00:24:55;2.07;;;1.87;;
2756;SDS011;1386;50.862;6.494;2023-07-29T00:27:22;1.93;;;1.60;;
2756;SDS011;1386;50.862;6.494;2023-07-29T00:29:50;2.90;;;1.50;;
2756;SDS011;1386;50.862;6.494;2023-07-29T00:32:17;2.80;;;1.70;;
2756;SDS011;1386;50.862;6.494;2023-07-29T00:34:44;2.10;;;1.80;;
2756;SDS011;1386;50.862;6.494;2023-07-29T00:37:11;4.43;;;1.70;;
2756;SDS011;1386;50.862;6.494;2023-07-29T00:39:41;2.13;;;1.57;;
2756;SDS011;1386;50.862;6.494;2023-07-29T00:42:08;3.50;;;2.00;;
2756;SDS011;1386;50.862;6.494;2023-07-29T00:44:35;2.77;;;1.90;;
2756;SDS011;1386;50.862;6.494;2023-07-29T00:47:03;2.10;;;1.70;;
2756;SDS011;1386;50.862;6.494;2023-07-29T00:49:31;2.50;;;1.60;;
2756;SDS011;1386;50.862;6.494;2023-07-29T00:51:58;3.60;;;2.07;;
2756;SDS011;1386;50.862;6.494;2023-07-29T00:54:25;2.80;;;1.60;;
2756;SDS011;1386;50.862;6.494;2023-07-29T00:56:52;3.00;;;1.90;;
2756;SDS011;1386;50.862;6.494;2023-07-29T00:59:19;2.20;;;2.00;;
2756;SDS011;1386;50.862;6.494;2023-07-29T01:01:46;2.10;;;1.90;;
2756;SDS011;1386;50.862;6.494;2023-07-29T01:04:17;2.43;;;1.90;;
2756;SDS011;1386;50.862;6.494;2023-07-29T01:06:46;3.90;;;1.70;;
2756;SDS011;1386;50.862;6.494;2023-07-29T01:09:23;1.87;;;1.73;;
2756;SDS011;1386;50.862;6.494;2023-07-29T01:11:55;3.07;;;1.70;;
2756;SDS011;1386;50.862;6.494;2023-07-29T01:14:33;2.17;;;1.90;;
2756;SDS011;1386;50.862;6.494;2023-07-29T01:17:07;1.80;;;1.70;;
2756;SDS011;1386;50.862;6.494;2023-07-29T01:22:30;4.17;;;1.77;;
2756;SDS011;1386;50.862;6.494;2023-07-29T01:25:04;2.80;;;1.43;;
2756;SDS011;1386;50.862;6.494;2023-07-29T01:27:31;1.77;;;1.27;;
2756;SDS011;1386;50.862;6.494;2023-07-29T01:29:58;2.60;;;1.77;;
2756;SDS011;1386;50.862;6.494;2023-07-29T01:32:28;3.57;;;1.57;;
2756;SDS011;1386;50.862;6.494;2023-07-29T01:35:00;4.00;;;1.60;;
2756;SDS011;1386;50.862;6.494;2023-07-29T01:37:36;3.53;;;1.43;;
2756;SDS011;1386;50.862;6.494;2023-07-29T01:40:11;2.33;;;1.80;;
2756;SDS011;1386;50.862;6.494;2023-07-29T01:42:38;1.43;;;1.33;;
2756;SDS011;1386;50.862;6.494;2023-07-29T01:45:05;5.50;;;1.70;;
2756;SDS011;1386;50.862;6.494;2023-07-29T01:47:32;2.13;;;1.30;;
2756;SDS011;1386;50.862;6.494;2023-07-29T01:49:59;1.73;;;1.40;;
2756;SDS011;1386;50.862;6.494;2023-07-29T01:52:26;2.00;;;1.50;;
2756;SDS011;1386;50.862;6.494;2023-07-29T01:54:54;2.23;;;1.53;;
2756;SDS011;1386;50.862;6.494;2023-07-29T01:57:22;2.80;;;1.93;;
2756;SDS011;1386;50.862;6.494;2023-07-29T01:59:49;2.53;;;1.60;;
2756;SDS011;1386;50.862;6.494;2023-07-29T02:02:17;1.73;;;1.43;;
2756;SDS011;1386;50.862;6.494;2023-07-29T02:04:43;2.50;;;1.60;;
2756;SDS011;1386;50.862;6.494;2023-07-29T02:07:16;2.17;;;1.50;;
2756;SDS011;1386;50.862;6.494;2023-07-29T02:09:43;2.03;;;1.43;;
2756;SDS011;1386;50.862;6.494;2023-07-29T02:12:09;4.00;;;1.50;;
2756;SDS011;1386;50.862;6.494;2023-07-29T02:14:38;2.23;;;1.50;;
2756;SDS011;1386;50.862;6.494;2023-07-29T02:17:05;3.20;;;1.43;;
2756;SDS011;1386;50.862;6.494;2023-07-29T02:19:32;2.07;;;1.33;;
2756;SDS011;1386;50.862;6.494;2023-07-29T02:21:58;1.33;;;1.20;;
2756;SDS011;1386;50.862;6.494;2023-07-29T06:32:53;3.83;;;3.20;;
2756;SDS011;1386;50.862;6.494;2023-07-29T06:35:19;3.37;;;3.07;;
2756;SDS011;1386;50.862;6.494;2023-07-29T06:37:46;3.80;;;2.97;;
2756;SDS011;1386;50.862;6.494;2023-07-29T06:40:22;4.17;;;2.90;;
2756;SDS011;1386;50.862;6.494;2023-07-29T06:42:50;3.93;;;2.80;;
2756;SDS011;1386;50.862;6.494;2023-07-29T06:45:18;10.00;;;3.00;;
2756;SDS011;1386;50.862;6.494;2023-07-29T06:47:48;3.20;;;2.90;;
2756;SDS011;1386;50.862;6.494;2023-07-29T06:50:16;4.43;;;2.73;;
2756;SDS011;1386;50.862;6.494;2023-07-29T06:52:43;5.57;;;2.70;;
2756;SDS011;1386;50.862;6.494;2023-07-29T06:55:10;2.60;;;2.40;;
2756;SDS011;1386;50.862;6.494;2023-07-29T06:57:37;2.43;;;2.23;;
2756;SDS011;1386;50.862;6.494;2023-07-29T07:00:05;3.43;;;2.57;;
2756;SDS011;1386;50.862;6.494;2023-07-29T07:02:34;2.50;;;2.30;;
2756;SDS011;1386;50.862;6.494;2023-07-29T07:05:01;4.00;;;2.60;;
2756;SDS011;1386;50.862;6.494;2023-07-29T07:07:29;4.03;;;2.60;;
2756;SDS011;1386;50.862;6.494;2023-07-29T07:09:56;5.57;;;2.23;;
2756;SDS011;1386;50.862;6.494;2023-07-29T07:12:23;2.53;;;1.90;;
2756;SDS011;1386;50.862;6.494;2023-07-29T07:14:49;5.77;;;2.13;;
2756;SDS011;1386;50.862;6.494;2023-07-29T07:17:16;2.67;;;1.70;;
2756;SDS011;1386;50.862;6.494;2023-07-29T07:19:43;2.33;;;1.97;;
2756;SDS011;1386;50.862;6.494;2023-07-29T07:22:11;2.50;;;1.83;;
2756;SDS011;1386;50.862;6.494;2023-07-29T07:24:39;2.83;;;1.77;;
2756;SDS011;1386;50.862;6.494;2023-07-29T07:27:06;5.07;;;2.27;;
2756;SDS011;1386;50.862;6.494;2023-07-29T07:29:42;2.77;;;2.30;;
2756;SDS011;1386;50.862;6.494;2023-07-29T07:32:09;3.40;;;2.37;;
2756;SDS011;1386;50.862;6.494;2023-07-29T07:34:36;2.70;;;2.13;;
2756;SDS011;1386;50.862;6.494;2023-07-29T07:37:03;3.90;;;2.00;;
2756;SDS011;1386;50.862;6.494;2023-07-29T07:39:30;1.93;;;1.67;;
2756;SDS011;1386;50.862;6.494;2023-07-29T07:41:59;3.80;;;1.80;;
2756;SDS011;1386;50.862;6.494;2023-07-29T07:44:26;2.30;;;1.80;;
2756;SDS011;1386;50.862;6.494;2023-07-29T07:46:52;3.33;;;2.10;;
2756;SDS011;1386;50.862;6.494;2023-07-29T07:49:19;2.17;;;1.87;;
2756;SDS011;1386;50.862;6.494;2023-07-29T07:51:46;2.47;;;1.70;;
2756;SDS011;1386;50.862;6.494;2023-07-29T07:54:13;2.20;;;1.77;;
2756;SDS011;1386;50.862;6.494;2023-07-29T07:56:39;2.00;;;1.70;;
2756;SDS011;1386;50.862;6.494;2023-07-29T07:59:08;2.50;;;1.70;;
2756;SDS011;1386;50.862;6.494;2023-07-29T08:01:34;2.07;;;1.50;;
2756;SDS011;1386;50.862;6.494;2023-07-29T08:04:02;3.00;;;1.40;;
2756;SDS011;1386;50.862;6.494;2023-07-29T08:06:29;2.17;;;1.70;;
2756;SDS011;1386;50.862;6.494;2023-07-29T08:08:56;3.33;;;1.60;;
2756;SDS011;1386;50.862;6.494;2023-07-29T08:11:24;2.03;;;1.43;;
2756;SDS011;1386;50.862;6.494;2023-07-29T08:13:51;2.77;;;2.00;;
2756;SDS011;1386;50.862;6.494;2023-07-29T08:16:19;2.97;;;2.10;;
2756;SDS011;1386;50.862;6.494;2023-07-29T08:18:46;2.40;;;1.77;;
2756;SDS011;1386;50.862;6.494;2023-07-29T08:21:16;2.10;;;1.87;;
2756;SDS011;1386;50.862;6.494;2023-07-29T08:23:44;2.70;;;1.70;;
2756;SDS011;1386;50.862;6.494;2023-07-29T08:26:21;2.30;;;1.47;;
2756;SDS011;1386;50.862;6.494;2023-07-29T08:28:50;2.60;;;1.60;;
2756;SDS011;1386;50.862;6.494;2023-07-29T08:31:17;1.93;;;1.63;;
2756;SDS011;1386;50.862;6.494;2023-07-29T08:33:45;2.10;;;1.40;;
2756;SDS011;1386;50.862;6.494;2023-07-29T08:36:12;3.20;;;1.40;;
2756;SDS011;1386;50.862;6.494;2023-07-29T08:38:38;2.90;;;1.50;;
2756;SDS011;1386;50.862;6.494;2023-07-29T08:41:06;2.40;;;1.40;;
2756;SDS011;1386;50.862;6.494;2023-07-29T08:43:41;1.83;;;1.50;;
2756;SDS011;1386;50.862;6.494;2023-07-29T08:46:14;1.80;;;1.47;;
2756;SDS011;1386;50.862;6.494;2023-07-29T08:48:42;3.30;;;1.50;;
2756;SDS011;1386;50.862;6.494;2023-07-29T08:51:11;2.83;;;1.50;;
2756;SDS011;1386;50.862;6.494;2023-07-29T08:53:39;3.43;;;1.40;;
2756;SDS011;1386;50.862;6.494;2023-07-29T08:56:06;1.90;;;1.40;;
2756;SDS011;1386;50.862;6.494;2023-07-29T08:58:36;1.70;;;1.20;;
2756;SDS011;1386;50.862;6.494;2023-07-29T09:01:05;1.63;;;1.40;;
2756;SDS011;1386;50.862;6.494;2023-07-29T09:03:32;2.30;;;1.47;;
2756;SDS011;1386;50.862;6.494;2023-07-29T09:06:07;1.87;;;1.10;;
2756;SDS011;1386;50.862;6.494;2023-07-29T09:08:34;3.30;;;1.27;;
2756;SDS011;1386;50.862;6.494;2023-07-29T09:11:01;1.77;;;1.20;;
2756;SDS011;1386;50.862;6.494;2023-07-29T09:13:28;1.70;;;1.50;;
2756;SDS011;1386;50.862;6.494;2023-07-29T09:15:55;2.03;;;1.57;;
2756;SDS011;1386;50.862;6.494;2023-07-29T09:18:25;1.87;;;1.20;;
2756;SDS011;1386;50.862;6.494;2023-07-29T09:20:53;1.53;;;1.27;;
2756;SDS011;1386;50.862;6.494;2023-07-29T09:23:21;2.97;;;1.30;;
2756;SDS011;1386;50.862;6.494;2023-07-29T09:25:48;1.30;;;1.03;;
2756;SDS011;1386;50.862;6.494;2023-07-29T09:28:16;3.67;;;1.30;;
2756;SDS011;1386;50.862;6.494;2023-07-29T09:30:44;1.43;;;1.33;;
2756;SDS011;1386;50.862;6.494;2023-07-29T09:33:12;1.60;;;1.27;;
2756;SDS011;1386;50.862;6.494;2023-07-29T09:35:39;1.60;;;1.40;;
2756;SDS011;1386;50.862;6.494;2023-07-29T09:38:06;2.20;;;1.30;;
2756;SDS011;1386;50.862;6.494;2023-07-29T09:40:39;2.13;;;1.10;;
2756;SDS011;1386;50.862;6.494;2023-07-29T09:43:08;4.20;;;1.93;;
2756;SDS011;1386;50.862;6.494;2023-07-29T09:45:35;1.53;;;1.43;;
2756;SDS011;1386;50.862;6.494;2023-07-29T09:48:03;2.07;;;1.60;;
2756;SDS011;1386;50.862;6.494;2023-07-29T09:50:34;3.80;;;1.60;;
2756;SDS011;1386;50.862;6.494;2023-07-29T09:53:01;2.37;;;1.33;;
2756;SDS011;1386;50.862;6.494;2023-07-29T09:55:29;4.47;;;1.80;;
2756;SDS011;1386;50.862;6.494;2023-07-29T09:58:00;4.73;;;1.77;;
2756;SDS011;1386;50.862;6.494;2023-07-29T10:03:27;3.27;;;1.57;;
2756;SDS011;1386;50.862;6.494;2023-07-29T10:05:56;2.57;;;1.60;;
2756;SDS011;1386;50.862;6.494;2023-07-29T10:08:46;2.60;;;1.77;;
2756;SDS011;1386;50.862;6.494;2023-07-29T10:11:16;2.23;;;1.73;;
2756;SDS011;1386;50.862;6.494;2023-07-29T10:13:57;2.13;;;1.70;;
2756;SDS011;1386;50.862;6.494;2023-07-29T10:16:35;3.13;;;1.40;;
2756;SDS011;1386;50.862;6.494;2023-07-29T10:19:12;2.43;;;1.70;;
2756;SDS011;1386;50.862;6.494;2023-07-29T10:21:58;4.20;;;1.60;;
2756;SDS011;1386;50.862;6.494;2023-07-29T10:24:29;2.30;;;1.70;;
2756;SDS011;1386;50.862;6.494;2023-07-29T10:27:00;2.73;;;1.70;;
2756;SDS011;1386;50.862;6.494;2023-07-29T10:29:30;1.70;;;1.40;;
2756;SDS011;1386;50.862;6.494;2023-07-29T10:32:01;1.53;;;1.43;;
2756;SDS011;1386;50.862;6.494;2023-07-29T10:34:39;2.00;;;1.80;;
2756;SDS011;1386;50.862;6.494;2023-07-29T10:37:07;2.63;;;1.80;;
2756;SDS011;1386;50.862;6.494;2023-07-29T10:39:37;3.83;;;1.70;;
2756;SDS011;1386;50.862;6.494;2023-07-29T10:42:20;1.70;;;1.47;;
2756;SDS011;1386;50.862;6.494;2023-07-29T10:44:49;2.23;;;1.70;;
2756;SDS011;1386;50.862;6.494;2023-07-29T10:47:21;2.10;;;1.50;;
2756;SDS011;1386;50.862;6.494;2023-07-29T10:49:51;1.90;;;1.33;;
2756;SDS011;1386;50.862;6.494;2023-07-29T10:55:45;3.37;;;1.70;;
2756;SDS011;1386;50.862;6.494;2023-07-29T10:58:13;1.60;;;1.30;;
2756;SDS011;1386;50.862;6.494;2023-07-29T11:00:45;2.10;;;1.40;;
2756;SDS011;1386;50.862;6.494;2023-07-29T11:03:12;2.13;;;1.73;;
2756;SDS011;1386;50.862;6.494;2023-07-29T11:12:39;1.70;;;1.30;;
2756;SDS011;1386;50.862;6.494;2023-07-29T11:15:28;1.90;;;1.33;;
2756;SDS011;1386;50.862;6.494;2023-07-29T14:26:43;2.23;;;1.83;;
2756;SDS011;1386;50.862;6.494;2023-07-29T14:29:10;6.10;;;2.40;;
2756;SDS011;1386;50.862;6.494;2023-07-29T14:31:37;2.93;;;2.03;;
2756;SDS011;1386;50.862;6.494;2023-07-29T14:34:04;3.20;;;1.80;;
2756;SDS011;1386;50.862;6.494;2023-07-29T14:36:31;3.33;;;2.17;;
2756;SDS011;1386;50.862;6.494;2023-07-29T14:39:03;4.00;;;2.27;;
2756;SDS011;1386;50.862;6.494;2023-07-29T14:41:30;2.47;;;2.17;;
2756;SDS011;1386;50.862;6.494;2023-07-29T14:43:58;3.00;;;2.10;;
2756;SDS011;1386;50.862;6.494;2023-07-29T14:46:25;3.30;;;2.23;;
2756;SDS011;1386;50.862;6.494;2023-07-29T14:48:52;2.67;;;2.00;;
2756;SDS011;1386;50.862;6.494;2023-07-29T14:51:18;2.50;;;2.23;;
2756;SDS011;1386;50.862;6.494;2023-07-29T14:53:45;3.40;;;1.87;;
2756;SDS011;1386;50.862;6.494;2023-07-29T14:56:12;2.43;;;2.10;;
2756;SDS011;1386;50.862;6.494;2023-07-29T14:58:42;2.20;;;2.00;;
2756;SDS011;1386;50.862;6.494;2023-07-29T15:01:14;3.20;;;2.13;;
2756;SDS011;1386;50.862;6.494;2023-07-29T15:03:43;2.60;;;1.93;;
2756;SDS011;1386;50.862;6.494;2023-07-29T15:06:16;3.10;;;2.03;;
2756;SDS011;1386;50.862;6.494;2023-07-29T15:09:03;4.03;;;2.17;;
